Time;durP1;ratioP1;P1;durP2;ratioP2;P2;SDS_P1;SDS_P2;PMS_P1;PMS_P2;Temp;Humidity;BMP_temperature;BMP_pressure;BME280_temperature;BME280_humidity;BME280_pressure;Samples;Min_cycle;Max_cycle;Signal;HPM_P1;HPM_P2
2022/01/30 06:23:59;;;;;;;8.33;7.05;;;;;;;5.68;47.84;100948.98;1755820;80;21045;-70
2022/01/30 06:30:21;;;;;;;9.75;7.53;;;;;;;5.75;48.34;100936.91;1693002;83;21055;-70
2022/01/30 06:33:02;;;;;;;11.50;7.67;;;;;;;5.77;48.51;100930.03;1611739;87;21039;-70
2022/01/30 06:35:47;;;;;;;8.85;7.62;;;;;;;5.78;48.49;100934.34;1612653;88;21063;-70
2022/01/30 06:38:16;;;;;;;9.10;7.35;;;;;;;5.80;48.46;100935.21;1599551;87;21558;-70
2022/01/30 06:40:59;;;;;;;10.63;7.97;;;;;;;5.82;48.41;100945.11;1582064;89;21099;-69
2022/01/30 06:43:44;;;;;;;11.93;9.50;;;;;;;5.84;48.32;100942.13;1566283;89;21600;-70
2022/01/30 06:46:29;;;;;;;19.00;14.25;;;;;;;5.87;48.34;100938.70;1551055;90;21082;-70
2022/01/30 06:49:13;;;;;;;15.78;11.22;;;;;;;5.88;48.37;100942.56;1574273;89;21169;-69
2022/01/30 06:51:51;;;;;;;21.00;15.38;;;;;;;5.90;48.21;100948.59;1511624;94;21190;-71
2022/01/30 06:54:28;;;;;;;14.70;11.83;;;;;;;5.89;48.20;100949.46;1465530;97;21142;-69
2022/01/30 06:57:14;;;;;;;15.05;11.05;;;;;;;5.90;48.06;100942.13;1452453;97;21165;-70
2022/01/30 07:00:00;;;;;;;12.85;9.70;;;;;;;5.89;47.90;100933.97;1416581;99;21178;-70
2022/01/30 07:02:45;;;;;;;13.35;8.95;;;;;;;5.88;47.82;100922.33;1417632;100;21645;-70
2022/01/30 07:05:15;;;;;;;9.35;8.33;;;;;;;5.88;47.46;100929.65;1421017;99;21139;-69
2022/01/30 07:07:50;;;;;;;11.10;8.48;;;;;;;5.89;47.16;100924.06;1486882;92;21146;-70
2022/01/30 07:10:16;;;;;;;8.33;7.40;;;;;;;5.90;46.96;100923.19;1524948;92;21031;-70
2022/01/30 07:12:43;;;;;;;9.70;7.75;;;;;;;5.92;46.81;100926.62;1525419;92;21114;-70
2022/01/30 07:15:10;;;;;;;10.95;8.43;;;;;;;5.94;46.51;100929.64;1542815;90;21075;-69
2022/01/30 07:17:37;;;;;;;22.07;15.55;;;;;;;5.95;46.38;100935.68;1567863;89;21172;-70
2022/01/30 07:20:05;;;;;;;31.17;21.70;;;;;;;5.96;46.19;100934.38;1567755;90;21061;-70
2022/01/30 07:22:33;;;;;;;53.50;30.12;;;;;;;5.97;45.99;100933.95;1568887;91;21026;-69
2022/01/30 07:24:59;;;;;;;68.57;36.70;;;;;;;5.99;45.54;100934.39;1569249;89;21043;-70
2022/01/30 07:27:25;;;;;;;48.20;28.98;;;;;;;5.98;45.17;100921.03;1563969;90;21104;-70
2022/01/30 07:29:52;;;;;;;43.87;24.40;;;;;;;5.99;45.18;100926.64;1629802;86;21041;-70
2022/01/30 07:32:18;;;;;;;65.32;39.45;;;;;;;5.98;45.19;100934.37;1639512;86;21077;-70
2022/01/30 07:34:45;;;;;;;62.75;38.08;;;;;;;5.97;45.28;100925.78;1633385;87;21086;-70
2022/01/30 07:37:12;;;;;;;43.08;27.93;;;;;;;5.95;45.46;100926.64;1646626;87;21089;-69
2022/01/30 07:39:38;;;;;;;24.05;17.52;;;;;;;5.94;45.55;100929.64;1633715;87;21034;-70
2022/01/30 07:42:06;;;;;;;28.50;20.60;;;;;;;5.93;45.64;100930.95;1638033;87;21038;-69
2022/01/30 07:44:34;;;;;;;24.45;18.67;;;;;;;5.92;45.74;100929.20;1624908;86;21105;-69
2022/01/30 07:47:01;;;;;;;17.42;14.18;;;;;;;5.92;45.86;100930.08;1631349;86;21021;-71
2022/01/30 07:49:27;;;;;;;13.35;11.65;;;;;;;5.90;46.10;100930.51;1651284;82;21050;-69
2022/01/30 07:51:53;;;;;;;12.60;11.10;;;;;;;5.89;46.20;100924.93;1761513;80;21559;-70
2022/01/30 07:54:21;;;;;;;11.55;9.68;;;;;;;5.87;46.51;100924.07;1751552;80;21539;-69
2022/01/30 07:56:47;;;;;;;9.80;8.80;;;;;;;5.87;46.84;100929.23;1750627;80;21584;-70
2022/01/30 07:59:14;;;;;;;12.25;9.60;;;;;;;5.83;47.39;100922.31;1757153;80;21050;-70
2022/01/30 08:01:40;;;;;;;10.40;9.30;;;;;;;5.78;47.93;100919.73;1759119;80;21030;-70
2022/01/30 08:04:07;;;;;;;11.80;9.75;;;;;;;5.75;48.20;100922.30;1762610;80;21034;-70
2022/01/30 08:06:35;;;;;;;19.40;13.22;;;;;;;5.71;48.50;100923.16;1755534;80;21487;-71
2022/01/30 08:09:02;;;;;;;23.80;16.48;;;;;;;5.69;48.93;100918.84;1769381;80;21006;-70
2022/01/30 08:11:30;;;;;;;54.77;32.03;;;;;;;5.67;49.13;100919.27;1761067;80;21086;-70
2022/01/30 08:13:59;;;;;;;39.80;27.90;;;;;;;5.62;49.53;100914.55;1754520;80;21025;-71
2022/01/30 08:16:27;;;;;;;38.17;27.27;;;;;;;5.57;49.83;100909.38;1762709;80;21069;-70
2022/01/30 08:18:53;;;;;;;27.48;19.95;;;;;;;5.55;50.13;100905.06;1755696;80;20991;-71
2022/01/30 08:21:20;;;;;;;21.02;17.30;;;;;;;5.51;50.51;100899.05;1751148;80;21057;-70
2022/01/30 08:23:46;;;;;;;27.62;20.90;;;;;;;5.48;50.73;100893.03;1754819;80;21003;-71
2022/01/30 08:26:13;;;;;;;17.92;14.87;;;;;;;5.48;51.11;100890.45;1753039;80;21058;-71
2022/01/30 08:28:39;;;;;;;15.80;14.07;;;;;;;5.47;51.28;100892.17;1754409;80;21050;-71
2022/01/30 08:31:05;;;;;;;15.90;13.55;;;;;;;5.47;51.51;100892.17;1775857;80;21022;-71
2022/01/30 08:33:32;;;;;;;14.45;11.65;;;;;;;5.47;51.71;100893.88;1757767;80;20995;-72
2022/01/30 08:35:59;;;;;;;43.28;27.95;;;;;;;5.45;51.66;100891.30;1751859;81;21023;-71
2022/01/30 08:38:25;;;;;;;37.65;23.83;;;;;;;5.41;51.82;100890.00;1760233;80;21041;-71
2022/01/30 08:40:51;;;;;;;54.38;32.03;;;;;;;5.40;51.98;100877.98;1747460;81;21006;-70
2022/01/30 08:43:21;;;;;;;21.35;15.72;;;;;;;5.39;52.06;100871.08;1757811;80;21491;-71
2022/01/30 08:45:46;;;;;;;26.10;16.45;;;;;;;5.37;51.88;100868.92;1751120;80;20991;-71
2022/01/30 08:48:13;;;;;;;19.65;12.98;;;;;;;5.34;51.87;100863.75;1755537;80;20991;-71
2022/01/30 08:50:40;;;;;;;15.38;11.53;;;;;;;5.33;51.87;100864.63;1764588;80;21077;-72
2022/01/30 08:53:08;;;;;;;18.37;11.85;;;;;;;5.32;51.95;100863.75;1752299;80;21051;-70
2022/01/30 08:55:35;;;;;;;32.08;19.73;;;;;;;5.32;52.08;100865.47;1747699;80;21026;-71
2022/01/30 08:58:07;;;;;;;30.60;19.60;;;;;;;5.31;52.21;100859.89;1746446;80;21035;-71
2022/01/30 09:00:31;;;;;;;30.32;19.05;;;;;;;5.32;52.28;100857.30;1738930;81;20991;-71
2022/01/30 09:02:59;;;;;;;30.82;20.05;;;;;;;5.32;52.30;100860.30;1760628;80;21125;-71
2022/01/30 09:05:25;;;;;;;17.77;13.65;;;;;;;5.34;52.46;100849.55;1744904;81;21003;-71
2022/01/30 09:07:52;;;;;;;17.50;13.40;;;;;;;5.36;52.47;100850.42;1748151;80;21085;-72
2022/01/30 09:10:19;;;;;;;23.10;16.48;;;;;;;5.37;52.54;100840.55;1755085;80;21502;-72
2022/01/30 09:12:46;;;;;;;13.13;11.25;;;;;;;5.40;52.59;100839.27;1759140;80;21497;-72
2022/01/30 09:15:15;;;;;;;14.20;10.80;;;;;;;5.42;52.57;100836.26;1764288;80;21514;-71
2022/01/30 09:17:43;;;;;;;14.63;11.33;;;;;;;5.43;52.55;100825.06;1746826;80;21048;-72
2022/01/30 09:20:11;;;;;;;12.98;11.03;;;;;;;5.43;52.67;100826.35;1767567;80;21022;-71
2022/01/30 09:22:38;;;;;;;11.15;9.65;;;;;;;5.45;52.73;100822.05;1746047;80;21083;-71
2022/01/30 09:25:06;;;;;;;12.50;8.98;;;;;;;5.44;52.88;100808.73;1756037;80;21042;-71
2022/01/30 09:27:34;;;;;;;12.37;9.13;;;;;;;5.46;52.75;100811.72;1755117;80;21058;-71
2022/01/30 09:30:01;;;;;;;12.73;9.83;;;;;;;5.46;52.70;100796.23;1756133;81;21523;-71
2022/01/30 09:32:27;;;;;;;13.30;9.78;;;;;;;5.45;52.82;100795.82;1750289;80;21526;-72
2022/01/30 09:34:54;;;;;;;11.63;9.58;;;;;;;5.46;52.87;100792.81;1765081;80;20999;-71
2022/01/30 09:37:20;;;;;;;10.43;9.13;;;;;;;5.47;52.98;100782.91;1768727;80;21014;-71
2022/01/30 09:39:47;;;;;;;13.65;10.13;;;;;;;5.49;52.86;100791.51;1763615;80;21073;-71
2022/01/30 09:42:13;;;;;;;12.37;10.35;;;;;;;5.50;52.89;100781.62;1761462;80;21562;-71
2022/01/30 09:44:40;;;;;;;15.25;11.93;;;;;;;5.48;52.90;100776.91;1755248;80;21592;-71
2022/01/30 09:47:13;;;;;;;11.53;9.78;;;;;;;5.47;52.97;100770.01;1746895;81;21616;-71
2022/01/30 09:49:43;;;;;;;12.15;8.48;;;;;;;5.45;53.04;100757.53;1756521;80;21077;-71
2022/01/30 09:52:09;;;;;;;11.68;9.93;;;;;;;5.43;53.02;100750.23;1754763;80;21105;-71
2022/01/30 09:54:36;;;;;;;13.28;10.98;;;;;;;5.40;53.16;100745.92;1755032;80;21074;-72
2022/01/30 09:57:03;;;;;;;16.42;12.03;;;;;;;5.39;53.34;100745.93;1764273;80;21041;-71
2022/01/30 09:59:29;;;;;;;15.40;11.93;;;;;;;5.36;53.40;100745.92;1753958;80;21542;-71
2022/01/30 10:01:56;;;;;;;14.40;11.08;;;;;;;5.36;53.53;100740.76;1756013;80;21552;-71
2022/01/30 10:04:22;;;;;;;14.93;10.30;;;;;;;5.37;53.56;100737.33;1744795;80;20970;-71
2022/01/30 10:06:59;;;;;;;13.35;9.48;;;;;;;5.37;53.57;100738.63;1756087;81;21084;-71
2022/01/30 10:09:31;;;;;;;15.60;13.28;;;;;;;5.39;53.58;100736.90;1763584;80;21022;-71
2022/01/30 10:12:13;;;;;;;12.10;9.58;;;;;;;5.37;53.64;100733.05;1758059;80;21042;-72
2022/01/30 10:15:06;;;;;;;10.70;9.60;;;;;;;5.37;53.82;100727.02;1750598;80;21545;-71
2022/01/30 10:17:43;;;;;;;10.03;9.03;;;;;;;5.37;53.96;100727.02;1756709;80;21026;-72
2022/01/30 10:20:13;;;;;;;11.50;8.95;;;;;;;5.35;54.14;100716.70;1762076;80;21041;-71
2022/01/30 10:22:58;;;;;;;11.65;8.98;;;;;;;5.37;54.22;100708.95;1759065;80;21562;-71
2022/01/30 10:25:36;;;;;;;10.18;8.98;;;;;;;5.37;54.31;100704.66;1754622;80;21003;-71
2022/01/30 10:28:12;;;;;;;10.23;8.48;;;;;;;5.38;54.34;100700.37;1751195;80;21458;-71
2022/01/30 10:30:44;;;;;;;10.78;8.60;;;;;;;5.39;54.53;100689.17;1754839;80;21495;-71
2022/01/30 10:33:14;;;;;;;10.48;8.78;;;;;;;5.41;54.51;100680.56;1755352;80;20990;-71
2022/01/30 10:35:56;;;;;;;11.28;9.53;;;;;;;5.43;54.43;100682.71;1752453;80;21046;-72
2022/01/30 10:38:31;;;;;;;19.60;13.95;;;;;;;5.46;54.39;100684.44;1767885;80;21018;-71
2022/01/30 10:41:10;;;;;;;13.40;9.73;;;;;;;5.49;54.28;100688.28;1761460;80;21058;-72
2022/01/30 10:43:54;;;;;;;13.38;11.95;;;;;;;5.48;54.24;100678.84;1750751;80;21529;-70
2022/01/30 10:46:26;;;;;;;19.50;14.18;;;;;;;5.45;54.32;100680.98;1767345;80;21016;-71
2022/01/30 10:48:56;;;;;;;17.73;14.83;;;;;;;5.42;54.51;100673.70;1749606;81;21097;-71
2022/01/30 10:51:23;;;;;;;19.02;15.55;;;;;;;5.40;54.76;100672.84;1733203;81;21074;-72
2022/01/30 10:53:51;;;;;;;23.80;16.05;;;;;;;5.39;54.91;100668.53;1726391;82;21000;-72
2022/01/30 10:56:20;;;;;;;28.12;19.67;;;;;;;5.39;54.97;100660.36;1724526;81;21007;-72
2022/01/30 10:59:21;;;;;;;32.88;22.65;;;;;;;5.38;55.10;100659.08;1732907;81;21127;-72
2022/01/30 11:01:50;;;;;;;26.85;20.60;;;;;;;5.39;55.09;100657.78;1725501;81;21084;-71
2022/01/30 11:04:23;;;;;;;21.70;17.52;;;;;;;5.40;55.29;100644.45;1725777;82;21106;-72
2022/01/30 11:06:50;;;;;;;15.20;11.85;;;;;;;5.41;55.34;100634.55;1715006;82;21086;-71
2022/01/30 11:09:22;;;;;;;12.93;11.53;;;;;;;5.42;55.49;100615.64;1728667;81;21022;-73
2022/01/30 11:11:50;;;;;;;11.57;9.68;;;;;;;5.48;55.61;100604.00;1723664;81;21086;-73
2022/01/30 11:14:16;;;;;;;11.48;9.60;;;;;;;5.51;55.51;100603.97;1722665;82;21033;-71
2022/01/30 11:19:26;;;;;;;16.32;11.97;;;;;;;5.56;55.43;100611.28;1651029;85;21486;-72
2022/01/30 11:21:57;;;;;;;11.22;10.03;;;;;;;5.59;55.30;100603.51;1643575;86;21777;-72
2022/01/30 11:24:25;;;;;;;12.50;9.18;;;;;;;5.61;55.49;100603.07;1634615;86;21042;-73
2022/01/30 11:26:51;;;;;;;10.58;9.23;;;;;;;5.63;55.51;100606.08;1647099;85;21014;-72
2022/01/30 11:29:20;;;;;;;10.10;9.10;;;;;;;5.64;55.58;100606.52;1642154;85;21157;-71
2022/01/30 11:31:48;;;;;;;11.85;10.32;;;;;;;5.68;55.59;100599.61;1644832;86;21043;-72
2022/01/30 11:34:15;;;;;;;10.48;9.40;;;;;;;5.72;55.66;100600.02;1650512;84;21030;-71
2022/01/30 11:36:44;;;;;;;10.35;9.35;;;;;;;5.76;55.72;100605.59;1647776;86;21157;-72
2022/01/30 11:39:20;;;;;;;9.60;8.38;;;;;;;5.82;55.75;100612.44;1644300;85;21014;-72
2022/01/30 11:42:09;;;;;;;9.78;8.78;;;;;;;5.84;55.55;100590.95;1653453;85;21089;-71
2022/01/30 11:44:36;;;;;;;8.48;7.25;;;;;;;5.86;55.68;100589.64;1643728;86;21050;-71
2022/01/30 11:47:08;;;;;;;9.93;8.93;;;;;;;5.86;55.85;100573.73;1644436;85;21077;-72
2022/01/30 11:49:50;;;;;;;10.20;9.10;;;;;;;5.89;55.83;100567.27;1656807;84;21088;-72
2022/01/30 11:52:18;;;;;;;9.48;8.50;;;;;;;5.91;55.86;100573.70;1644985;86;21053;-71
2022/01/30 11:54:53;;;;;;;9.90;9.00;;;;;;;5.93;55.82;100567.67;1650411;84;21022;-71
2022/01/30 11:57:29;;;;;;;10.03;9.03;;;;;;;5.95;55.93;100571.11;1654394;86;21062;-70
2022/01/30 12:02:34;;;;;;;8.73;7.83;;;;;;;6.04;56.07;100564.58;1589701;89;21129;-71
2022/01/30 12:05:08;;;;;;;9.10;8.20;;;;;;;6.07;56.00;100552.08;1587817;90;21081;-71
2022/01/30 12:07:42;;;;;;;8.85;7.95;;;;;;;6.10;56.08;100552.91;1587503;89;21074;-71
2022/01/30 12:10:26;;;;;;;9.50;8.50;;;;;;;6.14;55.93;100546.85;1587818;90;21069;-71
2022/01/30 12:13:03;;;;;;;10.38;9.28;;;;;;;6.17;55.78;100545.55;1645707;86;21124;-72
2022/01/30 12:15:45;;;;;;;9.65;8.70;;;;;;;6.20;55.62;100544.22;1650040;86;21057;-71
2022/01/30 12:18:14;;;;;;;;;;;;;;;6.23;55.44;100540.77;1658252;86;21054;-70
2022/01/30 12:21:01;;;;;;;15.08;11.90;;;;;;;6.24;55.29;100536.90;1644333;86;20127;-70
2022/01/30 12:23:32;;;;;;;12.93;10.68;;;;;;;6.25;55.15;100539.89;1646578;86;21019;-70
2022/01/30 12:26:06;;;;;;;11.25;9.50;;;;;;;6.28;55.13;100547.63;1536567;93;21146;-71
2022/01/30 12:28:49;;;;;;;15.15;13.38;;;;;;;6.29;55.10;100551.05;1522018;93;21088;-71
2022/01/30 12:31:35;;;;;;;14.45;12.58;;;;;;;6.30;55.01;100553.65;1527090;92;21574;-70
2022/01/30 12:34:16;;;;;;;20.37;15.18;;;;;;;6.32;54.85;100554.48;1522046;93;21755;-71
2022/01/30 12:36:53;;;;;;;19.42;16.67;;;;;;;6.32;54.75;100554.48;1520587;93;21235;-70
2022/01/30 12:39:21;;;;;;;12.18;10.63;;;;;;;6.30;54.87;100553.65;1517193;93;21133;-70
2022/01/30 12:41:49;;;;;;;9.40;8.43;;;;;;;6.32;54.75;100538.13;1502696;95;21163;-71
2022/01/30 12:44:19;;;;;;;11.15;8.70;;;;;;;6.32;54.65;100531.23;1525308;93;21102;-71
2022/01/30 12:46:50;;;;;;;8.78;7.87;;;;;;;6.33;54.58;100532.94;1517831;93;21152;-70
2022/01/30 12:49:20;;;;;;;10.78;7.83;;;;;;;6.35;54.57;100530.33;1466519;96;21117;-71
2022/01/30 12:51:53;;;;;;;8.83;7.42;;;;;;;6.37;54.66;100529.88;1472136;96;21190;-71
2022/01/30 12:54:23;;;;;;;8.55;7.58;;;;;;;6.40;54.45;100532.03;1416972;99;21217;-72
2022/01/30 12:56:51;;;;;;;9.55;8.55;;;;;;;6.41;54.41;100531.14;1425680;99;21674;-71
2022/01/30 12:59:18;;;;;;;16.23;12.35;;;;;;;6.44;54.29;100528.55;1427956;98;21124;-72
2022/01/30 13:01:46;;;;;;;13.08;11.00;;;;;;;6.48;54.11;100543.16;1444572;98;21084;-71
2022/01/30 13:04:20;;;;;;;12.40;10.80;;;;;;;6.51;54.13;100535.36;1441305;98;21235;-70
2022/01/30 13:06:50;;;;;;;9.43;8.43;;;;;;;6.55;54.11;100545.26;1444198;97;21157;-72
2022/01/30 13:09:28;;;;;;;11.15;8.33;;;;;;;6.60;53.97;100549.94;1359814;103;21235;-71
2022/01/30 13:12:02;;;;;;;8.20;6.97;;;;;;;6.62;53.81;100545.61;1283622;110;21206;-72
2022/01/30 13:14:37;;;;;;;8.55;7.65;;;;;;;6.64;53.53;100535.23;1241010;114;21291;-72
2022/01/30 13:17:05;;;;;;;11.45;9.60;;;;;;;6.62;53.66;100529.23;1265520;111;21260;-71
2022/01/30 13:19:34;;;;;;;19.80;13.13;;;;;;;6.62;53.61;100526.64;1267291;111;21678;-71
2022/01/30 13:22:04;;;;;;;24.20;17.67;;;;;;;6.64;53.50;100515.85;1262505;110;21195;-71
2022/01/30 13:24:30;;;;;;;24.95;18.00;;;;;;;6.64;53.43;100519.73;1285287;110;21186;-71
2022/01/30 13:27:01;;;;;;;21.73;16.55;;;;;;;6.65;53.34;100531.80;1281917;110;21283;-70
2022/01/30 13:29:30;;;;;;;31.00;21.93;;;;;;;6.62;53.25;100530.52;1281287;110;21265;-71
2022/01/30 13:31:57;;;;;;;21.82;16.23;;;;;;;6.57;53.28;100525.42;1292378;108;21216;-71
2022/01/30 13:34:30;;;;;;;15.48;12.63;;;;;;;6.53;53.34;100525.86;1294773;108;21186;-70
2022/01/30 13:37:10;;;;;;;23.87;16.62;;;;;;;6.50;53.52;100524.61;1296428;108;21269;-71
2022/01/30 13:47:33;;;;;;;12.43;9.80;;;;;;;6.35;53.76;100495.44;1320478;107;21174;-71
2022/01/30 13:50:02;;;;;;;12.28;9.55;;;;;;;6.33;53.84;100496.75;1318376;107;21177;-71
2022/01/30 13:52:31;;;;;;;9.83;8.83;;;;;;;6.30;53.98;100496.80;1334914;105;21235;-70
2022/01/30 13:55:06;;;;;;;9.25;8.20;;;;;;;6.30;54.04;100496.80;1324760;105;21196;-71
2022/01/30 13:57:35;;;;;;;9.20;8.30;;;;;;;6.29;54.04;100491.20;1335831;106;21171;-70
2022/01/30 14:00:15;;;;;;;8.60;7.62;;;;;;;6.26;54.14;100486.07;1328601;105;21143;-70
2022/01/30 14:03:06;;;;;;;9.18;8.28;;;;;;;6.24;54.21;100478.77;1302179;109;21237;-71
2022/01/30 14:05:43;;;;;;;8.93;8.03;;;;;;;6.25;54.27;100479.60;1301113;108;21371;-70
2022/01/30 14:08:14;;;;;;;9.10;7.97;;;;;;;6.23;54.30;100469.29;1347821;98;21139;-70
2022/01/30 14:10:42;;;;;;;10.60;8.55;;;;;;;6.23;54.32;100458.95;1426363;97;21203;-71
2022/01/30 14:13:20;;;;;;;9.58;8.48;;;;;;;6.25;54.30;100461.52;1465742;96;21771;-70
2022/01/30 14:16:06;;;;;;;8.93;7.97;;;;;;;6.25;54.27;100463.67;1416556;99;21686;-71
2022/01/30 14:18:54;;;;;;;9.73;8.73;;;;;;;6.26;54.28;100457.65;1376594;103;21109;-71
2022/01/30 14:21:28;;;;;;;9.78;8.63;;;;;;;6.26;54.15;100457.65;1334171;106;21199;-71
2022/01/30 14:23:54;;;;;;;10.28;8.75;;;;;;;6.23;54.15;100460.25;1335261;106;21183;-72
2022/01/30 14:26:28;;;;;;;10.20;8.70;;;;;;;6.21;54.18;100456.81;1340804;106;21174;-70
2022/01/30 14:29:12;;;;;;;11.48;9.00;;;;;;;6.20;54.25;100446.05;1333236;106;21800;-71
2022/01/30 14:31:51;;;;;;;13.40;9.43;;;;;;;6.20;54.37;100433.13;1333991;106;21734;-69
2022/01/30 14:34:18;;;;;;;11.15;9.93;;;;;;;6.23;54.32;100443.87;1342279;104;21678;-71
2022/01/30 14:36:45;;;;;;;15.45;13.48;;;;;;;6.24;54.10;100444.31;1353937;104;21504;-70
2022/01/30 14:39:12;;;;;;;14.50;12.98;;;;;;;6.24;54.11;100447.77;1365784;103;21124;-70
2022/01/30 14:41:39;;;;;;;13.22;11.83;;;;;;;6.23;54.09;100444.74;1363520;103;21194;-71
2022/01/30 14:44:06;;;;;;;11.90;10.70;;;;;;;6.24;54.26;100438.72;1345575;106;21180;-69
2022/01/30 14:46:33;;;;;;;10.18;9.18;;;;;;;6.25;54.24;100433.95;1323435;107;21158;-70
2022/01/30 14:49:01;;;;;;;9.73;8.73;;;;;;;6.28;54.11;100415.86;1344556;105;21165;-70
2022/01/30 14:51:27;;;;;;;9.98;8.93;;;;;;;6.30;54.03;100421.87;1342453;104;21147;-70
2022/01/30 14:53:54;;;;;;;10.43;8.45;;;;;;;6.32;53.94;100426.58;1365995;103;21169;-70
2022/01/30 14:56:21;;;;;;;11.38;9.65;;;;;;;6.31;53.90;100424.86;1343972;105;21167;-71
2022/01/30 14:58:47;;;;;;;10.88;9.78;;;;;;;6.30;53.90;100437.37;1396076;101;21127;-71
2022/01/30 15:01:13;;;;;;;10.85;9.45;;;;;;;6.32;53.92;100434.77;1427273;99;21185;-70
2022/01/30 15:03:40;;;;;;;9.85;8.88;;;;;;;6.32;53.93;100427.88;1433992;96;21156;-70
2022/01/30 15:06:06;;;;;;;10.78;9.40;;;;;;;6.32;53.91;100414.95;1489094;94;21118;-70
2022/01/30 15:08:33;;;;;;;10.50;8.90;;;;;;;6.33;53.88;100426.98;1487785;95;21183;-71
2022/01/30 15:11:00;;;;;;;21.68;15.90;;;;;;;6.33;53.77;100414.06;1466351;97;21192;-72
2022/01/30 15:13:28;;;;;;;28.52;23.07;;;;;;;6.33;53.68;100416.66;1580891;82;21070;-72
2022/01/30 15:15:57;;;;;;;26.15;20.12;;;;;;;6.31;53.77;100426.14;1745543;80;21079;-71
2022/01/30 15:18:30;;;;;;;15.78;13.18;;;;;;;6.32;53.92;100436.92;1763569;80;21495;-70
2022/01/30 15:20:52;;;;;;;22.52;17.05;;;;;;;6.34;53.77;100438.19;1752193;80;21031;-71
2022/01/30 15:23:18;;;;;;;18.98;15.43;;;;;;;6.35;53.74;100442.47;1759447;80;21046;-70
2022/01/30 15:25:44;;;;;;;13.28;10.95;;;;;;;6.36;53.76;100442.48;1756582;80;21066;-71
2022/01/30 15:28:11;;;;;;;16.50;13.43;;;;;;;6.34;53.66;100446.80;1768408;80;21002;-71
2022/01/30 15:30:37;;;;;;;18.50;14.38;;;;;;;6.32;53.75;100447.69;1774420;80;21089;-71
2022/01/30 15:33:03;;;;;;;11.28;10.03;;;;;;;6.32;53.79;100460.17;1765566;80;21005;-70
2022/01/30 15:35:30;;;;;;;11.95;10.68;;;;;;;6.30;53.66;100465.80;1761704;80;21002;-70
2022/01/30 15:37:58;;;;;;;12.78;11.05;;;;;;;6.32;53.66;100460.60;1780758;80;21038;-70
2022/01/30 15:40:26;;;;;;;9.95;8.95;;;;;;;6.32;53.65;100451.13;1766014;80;21025;-70
2022/01/30 15:42:52;;;;;;;11.10;9.75;;;;;;;6.33;53.57;100449.38;1762234;81;20979;-70
2022/01/30 15:50:33;;;;;;;10.90;9.73;;;;;;;6.27;53.44;100447.72;1756575;80;21551;-69
2022/01/30 15:53:00;;;;;;;13.80;9.13;;;;;;;6.25;53.39;100449.46;1764917;80;21549;-70
2022/01/30 15:55:26;;;;;;;11.20;9.68;;;;;;;6.23;53.28;100448.62;1762233;80;20993;-70
2022/01/30 15:57:53;;;;;;;9.28;8.30;;;;;;;6.20;53.22;100453.80;1740974;80;21054;-70
2022/01/30 16:00:20;;;;;;;9.35;8.38;;;;;;;6.17;53.15;100453.84;1749858;80;21033;-71
2022/01/30 16:02:47;;;;;;;10.25;9.15;;;;;;;6.13;53.15;100462.48;1740172;81;21097;-70
2022/01/30 16:05:13;;;;;;;10.60;9.45;;;;;;;6.09;53.08;100460.80;1747738;80;21073;-71
2022/01/30 16:07:40;;;;;;;13.60;11.15;;;;;;;6.06;53.16;100459.98;1755708;80;20991;-70
2022/01/30 16:10:13;;;;;;;14.90;12.60;;;;;;;6.04;53.21;100453.52;1770296;80;21082;-70
2022/01/30 16:17:54;;;;;;;24.52;17.07;;;;;;;5.96;52.97;100457.88;1755470;80;21092;-70
2022/01/30 16:20:20;;;;;;;30.45;20.15;;;;;;;5.92;53.05;100456.63;1754570;80;21014;-70
2022/01/30 16:22:47;;;;;;;41.10;26.17;;;;;;;5.90;52.93;100454.06;1759943;80;21505;-71
2022/01/30 16:25:14;;;;;;;36.75;23.57;;;;;;;5.87;52.96;100455.39;1759232;80;20997;-70
2022/01/30 16:27:41;;;;;;;20.05;15.05;;;;;;;5.85;52.86;100445.94;1750585;81;20975;-70
2022/01/30 16:30:09;;;;;;;16.15;13.45;;;;;;;5.82;52.93;100442.91;1741529;80;21521;-70
2022/01/30 16:32:36;;;;;;;16.90;13.13;;;;;;;5.80;52.86;100439.47;1753515;80;21074;-70
2022/01/30 16:35:07;;;;;;;14.33;12.47;;;;;;;5.78;52.86;100441.21;1756585;80;21067;-70
2022/01/30 16:37:34;;;;;;;17.67;13.08;;;;;;;5.76;52.93;100441.66;1768709;80;21007;-70
2022/01/30 16:40:00;;;;;;;24.85;18.48;;;;;;;5.72;52.94;100449.87;1769253;80;21449;-70
2022/01/30 16:42:29;;;;;;;39.27;26.87;;;;;;;5.68;52.91;100453.34;1759179;80;21497;-70
2022/01/30 16:45:03;;;;;;;26.95;18.80;;;;;;;5.64;53.02;100455.94;1750194;80;20998;-70
2022/01/30 16:47:29;;;;;;;23.70;15.68;;;;;;;5.61;53.13;100453.37;1775322;80;21056;-72
2022/01/30 16:49:54;;;;;;;27.52;20.00;;;;;;;5.59;53.21;100457.69;1752268;80;21076;-71
2022/01/30 16:52:21;;;;;;;37.10;24.00;;;;;;;5.58;53.31;100462.02;1750072;80;21029;-71
2022/01/30 16:54:53;;;;;;;23.57;17.87;;;;;;;5.56;53.25;100447.39;1758799;80;21029;-71
2022/01/30 16:57:16;;;;;;;19.05;14.85;;;;;;;5.54;53.24;100438.34;1746642;80;21043;-70
2022/01/30 16:59:42;;;;;;;15.98;11.83;;;;;;;5.53;53.19;100440.52;1771112;80;21006;-71
2022/01/30 17:02:12;;;;;;;15.30;11.80;;;;;;;5.51;53.26;100431.07;1753412;81;21045;-71
2022/01/30 17:04:38;;;;;;;11.50;10.03;;;;;;;5.50;53.27;100430.66;1731497;82;21047;-71
2022/01/30 17:07:06;;;;;;;12.35;10.30;;;;;;;5.49;53.26;100428.94;1755375;80;21534;-70
2022/01/30 17:09:38;;;;;;;13.75;10.63;;;;;;;5.47;53.25;100424.22;1770696;80;21494;-71
2022/01/30 17:12:15;;;;;;;12.20;10.90;;;;;;;5.46;53.13;100427.68;1760803;80;21058;-70
2022/01/30 17:14:35;;;;;;;14.83;10.85;;;;;;;5.42;53.20;100419.08;1735718;80;21065;-71
2022/01/30 17:17:02;;;;;;;10.90;9.68;;;;;;;5.40;53.21;100420.81;1763671;80;21058;-72
2022/01/30 17:19:29;;;;;;;11.93;9.70;;;;;;;5.41;53.19;100415.23;1750298;80;21034;-70
2022/01/30 17:21:56;;;;;;;14.53;10.38;;;;;;;5.40;53.04;100407.91;1751954;80;21089;-71
2022/01/30 17:24:24;;;;;;;12.33;11.03;;;;;;;5.37;53.04;100407.09;1749874;81;21007;-71
2022/01/30 17:26:53;;;;;;;22.32;15.03;;;;;;;5.36;53.18;100407.94;1744225;80;21066;-70
2022/01/30 17:29:22;;;;;;;17.80;13.95;;;;;;;5.36;53.14;100413.09;1761353;81;21486;-70
2022/01/30 17:31:49;;;;;;;23.18;15.93;;;;;;;5.35;53.03;100412.69;1747134;81;21013;-71
2022/01/30 17:34:16;;;;;;;32.67;23.95;;;;;;;5.34;52.96;100419.98;1766582;80;21005;-71
2022/01/30 17:36:42;;;;;;;35.35;26.02;;;;;;;5.33;52.82;100428.61;1761977;80;21049;-71
2022/01/30 17:39:09;;;;;;;24.40;19.00;;;;;;;5.31;52.69;100428.62;1758858;80;20997;-71
2022/01/30 17:41:35;;;;;;;20.48;16.35;;;;;;;5.29;52.70;100424.33;1745703;80;21067;-71
2022/01/30 17:44:02;;;;;;;19.50;15.18;;;;;;;5.28;52.67;100425.19;1747989;81;21034;-71
2022/01/30 17:46:29;;;;;;;15.90;12.43;;;;;;;5.26;52.52;100423.05;1763001;80;21035;-71
2022/01/30 17:48:58;;;;;;;14.18;12.68;;;;;;;5.22;52.45;100420.92;1752314;80;22403;-71
2022/01/30 17:51:25;;;;;;;17.15;14.47;;;;;;;5.21;52.49;100428.68;1753457;80;21553;-70
2022/01/30 17:53:55;;;;;;;13.98;11.85;;;;;;;5.19;52.44;100425.25;1765445;80;21026;-71
2022/01/30 17:56:21;;;;;;;15.35;11.63;;;;;;;5.15;52.37;100423.13;1748459;80;21015;-70
2022/01/30 17:58:48;;;;;;;12.78;10.10;;;;;;;5.13;52.56;100429.16;1756335;80;21022;-71
2022/01/30 18:01:15;;;;;;;13.98;11.18;;;;;;;5.13;52.54;100429.16;1769662;80;21006;-70
2022/01/30 18:03:42;;;;;;;15.60;13.30;;;;;;;5.11;52.50;100428.30;1760875;80;21541;-70
2022/01/30 18:06:16;;;;;;;21.97;16.45;;;;;;;5.09;52.51;100429.58;1749068;80;21019;-71
2022/01/30 18:08:44;;;;;;;32.15;22.15;;;;;;;5.08;52.60;100439.91;1754978;81;21062;-71
2022/01/30 18:11:11;;;;;;;29.30;20.43;;;;;;;5.06;52.51;100434.77;1753491;80;21566;-71
2022/01/30 18:13:37;;;;;;;18.77;13.75;;;;;;;5.07;52.49;100435.63;1764768;80;21041;-70
2022/01/30 18:16:05;;;;;;;19.23;13.15;;;;;;;5.06;52.55;100437.77;1754240;80;21517;-71
2022/01/30 18:18:33;;;;;;;20.35;13.60;;;;;;;5.05;52.43;100436.07;1749464;80;21053;-71
2022/01/30 18:20:59;;;;;;;15.23;12.30;;;;;;;5.02;52.45;100425.33;1758432;80;21014;-71
2022/01/30 18:23:26;;;;;;;15.25;11.22;;;;;;;5.02;52.44;100416.31;1746393;80;20998;-71
2022/01/30 18:25:52;;;;;;;15.65;11.60;;;;;;;5.02;52.31;100418.89;1759772;80;21030;-70